createdAt,value
2024-02-08T00:00:22.532Z,991.2
2024-02-08T00:01:25.610Z,991.2
2024-02-08T00:02:27.540Z,991.2
2024-02-08T00:03:29.520Z,991
2024-02-08T00:04:31.720Z,991.2
2024-02-08T00:05:33.620Z,991.2
2024-02-08T00:06:35.588Z,991.1
2024-02-08T00:07:37.543Z,991.2
2024-02-08T00:08:39.520Z,991.1
2024-02-08T00:09:41.538Z,991.1
2024-02-08T00:10:43.555Z,991.1
2024-02-08T00:11:46.507Z,991.1
2024-02-08T00:12:48.520Z,991.1
2024-02-08T00:13:50.578Z,991.2
2024-02-08T00:14:53.534Z,991.1
2024-02-08T00:15:57.452Z,991.1
2024-02-08T00:16:57.544Z,991.2
2024-02-08T00:17:59.614Z,991.2
2024-02-08T00:19:01.549Z,991.1
2024-02-08T00:20:03.722Z,991.1
2024-02-08T00:21:06.520Z,991.1
2024-02-08T00:22:08.529Z,991.1
2024-02-08T00:23:10.560Z,991.1
2024-02-08T00:24:12.519Z,991.1
2024-02-08T00:25:14.523Z,991.1
2024-02-08T00:26:16.538Z,991.1
2024-02-08T00:27:18.579Z,991.2
2024-02-08T00:28:20.522Z,991.1
2024-02-08T00:29:22.557Z,991.2
2024-02-08T00:30:24.525Z,991.1
2024-02-08T00:31:26.673Z,991.1
2024-02-08T00:32:28.553Z,991.1
2024-02-08T00:33:30.800Z,991.1
2024-02-08T00:34:32.736Z,991.1
2024-02-08T00:35:34.558Z,991.1
2024-02-08T00:36:36.550Z,991
2024-02-08T00:37:38.570Z,991.1
2024-02-08T00:38:40.649Z,991.1
2024-02-08T00:39:42.518Z,991.1
2024-02-08T00:40:44.550Z,991.1
2024-02-08T00:41:46.527Z,991.1
2024-02-08T00:42:48.549Z,991.1
2024-02-08T00:43:50.560Z,991.1
2024-02-08T00:44:53.541Z,991.1
2024-02-08T00:45:55.715Z,991.1
2024-02-08T00:46:57.691Z,991.1
2024-02-08T00:47:59.605Z,991.1
2024-02-08T00:49:01.625Z,991.1
2024-02-08T00:50:03.656Z,991.1
2024-02-08T00:51:05.534Z,991.1
2024-02-08T00:52:08.558Z,991.1
2024-02-08T00:53:10.621Z,991.1
2024-02-08T00:54:12.581Z,991.2
2024-02-08T00:55:15.576Z,991.2
2024-02-08T00:56:17.554Z,991.2
2024-02-08T00:57:19.549Z,991.1
2024-02-08T00:58:21.544Z,991.1
2024-02-08T00:59:25.554Z,991.1
2024-02-08T01:00:28.528Z,991.2
2024-02-08T01:01:30.710Z,991.1
2024-02-08T01:02:32.537Z,991.1
2024-02-08T01:03:34.562Z,990.8
2024-02-08T01:04:37.585Z,991.1
2024-02-08T01:05:39.616Z,991.1
2024-02-08T01:06:41.546Z,991.1
2024-02-08T01:07:43.604Z,991
2024-02-08T01:08:45.544Z,991
2024-02-08T01:09:47.550Z,990.9
2024-02-08T01:10:50.655Z,991
2024-02-08T01:11:52.560Z,991
2024-02-08T01:12:54.535Z,990.9
2024-02-08T01:13:56.618Z,991
2024-02-08T01:14:58.543Z,991
2024-02-08T01:16:00.568Z,990.9
2024-02-08T01:17:02.584Z,990.9
2024-02-08T01:18:04.586Z,990.8
2024-02-08T01:19:06.584Z,990.8
2024-02-08T01:20:08.597Z,990.9
2024-02-08T01:21:10.541Z,990.8
2024-02-08T01:22:13.529Z,990.9
2024-02-08T01:23:15.620Z,990.9
2024-02-08T01:24:17.545Z,990.9
2024-02-08T01:25:19.562Z,990.9
2024-02-08T01:26:21.553Z,989.2
2024-02-08T01:27:23.562Z,990.8
2024-02-08T01:28:25.660Z,991
2024-02-08T01:29:27.682Z,990.9
2024-02-08T01:30:29.546Z,991
2024-02-08T01:31:31.572Z,991
2024-02-08T01:32:33.568Z,990.7
2024-02-08T01:33:35.742Z,990.9
2024-02-08T01:34:38.623Z,991
2024-02-08T01:35:40.541Z,991
2024-02-08T01:36:42.556Z,990.9
2024-02-08T01:37:44.570Z,991
2024-02-08T01:38:46.545Z,990.9
2024-02-08T01:39:49.549Z,991
2024-02-08T01:40:51.606Z,991.1
2024-02-08T01:41:53.561Z,990.9
2024-02-08T01:42:55.561Z,990.7
2024-02-08T01:43:57.599Z,991
2024-02-08T01:44:59.569Z,991
2024-02-08T01:46:01.569Z,991
2024-02-08T01:47:03.652Z,991
2024-02-08T01:48:05.596Z,990.9
2024-02-08T01:49:07.585Z,990.9
2024-02-08T01:50:09.657Z,990.9
2024-02-08T01:51:11.573Z,990.8
2024-02-08T01:52:13.594Z,990.9
2024-02-08T01:53:15.725Z,990.8
2024-02-08T01:54:17.578Z,990.9
2024-02-08T01:55:19.572Z,990.8
2024-02-08T01:56:21.577Z,990.8
2024-02-08T01:57:23.576Z,990.9
2024-02-08T01:58:25.625Z,990.9
2024-02-08T01:59:27.585Z,990.8
2024-02-08T02:00:31.122Z,990.9
2024-02-08T02:01:31.626Z,990.9
2024-02-08T02:02:33.580Z,990.9
2024-02-08T02:03:35.624Z,990.9
2024-02-08T02:04:37.612Z,990.8
2024-02-08T02:05:39.579Z,990.8
2024-02-08T02:06:41.633Z,990.8
2024-02-08T02:07:43.638Z,990.8
2024-02-08T02:08:45.582Z,990.7
2024-02-08T02:09:47.616Z,990.8
2024-02-08T02:10:49.634Z,990.8
2024-02-08T02:11:52.820Z,990.8
2024-02-08T02:12:54.564Z,990.6
2024-02-08T02:13:56.635Z,990.8
2024-02-08T02:14:58.591Z,990.6
2024-02-08T02:16:00.595Z,990.7
2024-02-08T02:17:02.591Z,990.7
2024-02-08T02:18:04.637Z,989.9
2024-02-08T02:19:06.659Z,990.6
2024-02-08T02:20:08.631Z,990.7
2024-02-08T02:21:10.598Z,990.6
2024-02-08T02:22:12.619Z,990.7
2024-02-08T02:23:14.584Z,990.6
2024-02-08T02:24:16.597Z,990.4
2024-02-08T02:25:18.573Z,990.6
2024-02-08T02:26:20.581Z,990.6
2024-02-08T02:27:22.594Z,990.6
2024-02-08T02:28:24.619Z,990.6
2024-02-08T02:29:26.582Z,990.7
2024-02-08T02:30:28.612Z,990.6
2024-02-08T02:31:30.806Z,990.6
2024-02-08T02:32:32.680Z,990.6
2024-02-08T02:35:57.062Z,990.7
2024-02-08T02:36:58.596Z,990.9
2024-02-08T02:38:00.715Z,990.7
2024-02-08T02:39:02.584Z,990.7
2024-02-08T02:40:04.595Z,990.6
2024-02-08T02:41:06.748Z,990.6
2024-02-08T02:42:08.624Z,990.6
2024-02-08T02:43:10.584Z,990.7
2024-02-08T02:44:12.713Z,990.6
2024-02-08T02:45:14.592Z,990.6
2024-02-08T02:46:16.614Z,990.5
2024-02-08T02:47:18.634Z,990.6
2024-02-08T02:48:20.664Z,990.6
2024-02-08T02:49:22.601Z,990.6
2024-02-08T02:50:24.656Z,990.5
2024-02-08T02:51:26.617Z,990.7
2024-02-08T02:52:28.626Z,990.6
2024-02-08T02:53:30.890Z,990.6
2024-02-08T02:54:32.588Z,990.6
2024-02-08T02:55:34.606Z,990.6
2024-02-08T02:56:36.608Z,990.5
2024-02-08T02:57:38.594Z,990.5
2024-02-08T02:58:40.603Z,990.5
2024-02-08T02:59:42.608Z,990.6
2024-02-08T03:00:44.694Z,990.5
2024-02-08T03:01:46.691Z,990.4
2024-02-08T03:02:48.593Z,990.5
2024-02-08T03:03:50.654Z,990.6
2024-02-08T03:04:52.850Z,990.5
2024-02-08T03:05:55.586Z,990.5
2024-02-08T03:06:57.773Z,990.7
2024-02-08T03:07:59.706Z,990.6
2024-02-08T03:09:01.615Z,990.5
2024-02-08T03:10:03.605Z,990.4
2024-02-08T03:11:05.719Z,990.4
2024-02-08T03:12:08.612Z,990.5
2024-02-08T03:13:10.638Z,990.4
2024-02-08T03:14:13.001Z,990.5
2024-02-08T03:15:14.599Z,990.5
2024-02-08T03:16:16.623Z,990.5
2024-02-08T03:17:18.614Z,990.4
2024-02-08T03:18:20.599Z,990.4
2024-02-08T03:19:22.725Z,990.4
2024-02-08T03:20:24.789Z,990.4
2024-02-08T03:21:26.609Z,990.3
2024-02-08T03:22:28.636Z,990.4
2024-02-08T03:23:30.897Z,990.4
2024-02-08T03:24:33.805Z,990.4
2024-02-08T03:25:35.693Z,990.3
2024-02-08T03:26:37.624Z,990.4
2024-02-08T03:27:39.608Z,990.3
2024-02-08T03:28:41.638Z,990.5
2024-02-08T03:29:43.622Z,990.4
2024-02-08T03:30:45.665Z,990.4
2024-02-08T03:31:47.684Z,990.4
2024-02-08T03:32:50.672Z,990.4
2024-02-08T03:33:52.623Z,990.3
2024-02-08T03:34:54.861Z,990.3
2024-02-08T03:35:56.676Z,990.3
2024-02-08T03:36:58.625Z,990.4
2024-02-08T03:38:00.676Z,990.3
2024-02-08T03:39:02.625Z,990.4
2024-02-08T03:40:04.612Z,990.4
2024-02-08T03:41:06.737Z,990.3
2024-02-08T03:42:08.635Z,990.3
2024-02-08T03:43:10.610Z,990.3
2024-02-08T03:44:12.770Z,990.3
2024-02-08T03:45:14.644Z,990.3
2024-02-08T03:46:16.625Z,990.4
2024-02-08T03:47:18.887Z,990.5
2024-02-08T03:48:20.668Z,990.4
2024-02-08T03:49:22.639Z,990.3
2024-02-08T03:50:24.646Z,990.3
2024-02-08T03:51:26.637Z,990.2
2024-02-08T03:52:28.739Z,990.3
2024-02-08T03:53:31.008Z,990.3
2024-02-08T03:54:32.705Z,989.6
2024-02-08T03:55:34.698Z,990.3
2024-02-08T03:56:36.658Z,990.4
2024-02-08T03:57:38.645Z,990.4
2024-02-08T03:58:40.660Z,990.4
2024-02-08T03:59:43.061Z,990.3
2024-02-08T04:00:44.621Z,990.3
2024-02-08T04:01:46.689Z,990.3
2024-02-08T04:02:48.632Z,990.3
2024-02-08T04:03:50.655Z,990.3
2024-02-08T04:04:52.713Z,990.3
2024-02-08T04:05:54.767Z,990.3
2024-02-08T04:06:56.661Z,990.3
2024-02-08T04:07:58.815Z,990.3
2024-02-08T04:09:00.693Z,990.3
2024-02-08T04:10:02.646Z,990.5
2024-02-08T04:11:04.670Z,990.4
2024-02-08T04:12:06.633Z,990.2
2024-02-08T04:13:08.633Z,990.3
2024-02-08T04:14:10.687Z,990.3
2024-02-08T04:15:12.662Z,990.3
2024-02-08T04:16:14.641Z,990.4
2024-02-08T04:17:16.689Z,990.5
2024-02-08T04:18:18.742Z,990.4
2024-02-08T04:19:20.709Z,990.3
2024-02-08T04:20:22.636Z,990.3
2024-02-08T04:21:24.732Z,990.5
2024-02-08T04:22:26.676Z,990.4
2024-02-08T04:23:30.025Z,989.8
2024-02-08T04:24:30.988Z,990.3
2024-02-08T04:25:32.646Z,990.3
2024-02-08T04:26:34.647Z,990.4
2024-02-08T04:27:36.675Z,990.4
2024-02-08T04:28:38.662Z,990.4
2024-02-08T04:29:40.656Z,990.3
2024-02-08T04:30:42.653Z,990.3
2024-02-08T04:31:44.701Z,990.4
2024-02-08T04:32:46.709Z,990.3
2024-02-08T04:33:48.813Z,990.3
2024-02-08T04:34:50.666Z,990.1
2024-02-08T04:35:52.632Z,990.3
2024-02-08T04:36:54.690Z,990.3
2024-02-08T04:37:56.702Z,990.3
2024-02-08T04:38:58.650Z,990.3
2024-02-08T04:40:00.646Z,989.3
2024-02-08T04:41:02.712Z,990.2
2024-02-08T04:42:04.643Z,990.3
2024-02-08T04:43:06.666Z,990.3
2024-02-08T04:44:08.741Z,990.3
2024-02-08T04:45:10.657Z,990.3
2024-02-08T04:46:13.652Z,989.9
2024-02-08T04:47:15.684Z,990.3
2024-02-08T04:48:17.796Z,990.2
2024-02-08T04:49:19.644Z,990.3
2024-02-08T04:50:21.684Z,990.2
2024-02-08T04:51:23.649Z,990.2
2024-02-08T04:52:25.721Z,990.3
2024-02-08T04:53:27.664Z,990.3
2024-02-08T04:54:29.656Z,990.2
2024-02-08T04:55:31.664Z,990.2
2024-02-08T04:56:33.666Z,990.2
2024-02-08T04:57:35.665Z,990.2
2024-02-08T04:59:39.793Z,990.2
2024-02-08T05:00:41.690Z,990.2
2024-02-08T05:01:43.648Z,990.2
2024-02-08T05:02:45.654Z,990.2
2024-02-08T05:03:47.719Z,990.2
2024-02-08T05:04:49.744Z,990.1
2024-02-08T05:05:51.729Z,990.2
2024-02-08T05:06:53.822Z,990.1
2024-02-08T05:07:55.764Z,990.2
2024-02-08T05:08:57.656Z,990.1
2024-02-08T05:09:59.708Z,989.8
2024-02-08T05:11:01.677Z,990.1
2024-02-08T05:12:03.657Z,990.1
2024-02-08T05:13:05.753Z,990.1
2024-02-08T05:14:07.648Z,990.2
2024-02-08T05:15:09.652Z,990.1
2024-02-08T05:16:11.672Z,990.2
2024-02-08T05:17:13.663Z,990.2
2024-02-08T05:18:15.809Z,990.1
2024-02-08T05:19:17.841Z,990.1
2024-02-08T05:20:19.688Z,990.1
2024-02-08T05:21:21.673Z,990.2
2024-02-08T05:22:23.704Z,990
2024-02-08T05:23:25.689Z,990.1
2024-02-08T05:24:27.660Z,990
2024-02-08T05:25:29.681Z,990
2024-02-08T05:26:31.678Z,990.1
2024-02-08T05:27:33.676Z,990.2
2024-02-08T05:28:35.657Z,990.1
2024-02-08T05:29:37.674Z,990.2
2024-02-08T05:30:39.665Z,990.1
2024-02-08T05:31:41.664Z,990.1
2024-02-08T05:32:43.679Z,990.3
2024-02-08T05:33:45.768Z,990.1
2024-02-08T05:34:47.748Z,990
2024-02-08T05:35:49.686Z,990.2
2024-02-08T05:36:51.700Z,990.2
2024-02-08T05:37:53.656Z,990.1
2024-02-08T05:38:55.704Z,990.2
2024-02-08T05:39:57.695Z,990.2
2024-02-08T05:41:01.461Z,990.1
2024-02-08T05:42:01.687Z,990.2
2024-02-08T05:43:03.724Z,990.1
2024-02-08T05:44:08.671Z,990.1
2024-02-08T05:45:10.671Z,990.1
2024-02-08T05:46:12.718Z,990.1
2024-02-08T05:47:14.680Z,990.1
2024-02-08T05:48:16.800Z,990.1
2024-02-08T05:49:18.796Z,990.1
2024-02-08T05:50:20.700Z,990.1
2024-02-08T05:51:22.664Z,990.1
2024-02-08T05:52:24.698Z,990.1
2024-02-08T05:53:26.661Z,990.1
2024-02-08T05:54:28.706Z,990.1
2024-02-08T05:55:31.056Z,990.1
2024-02-08T05:56:32.670Z,990.1
2024-02-08T05:57:34.684Z,990.1
2024-02-08T05:58:36.705Z,990.2
2024-02-08T05:59:39.058Z,990.3
2024-02-08T06:00:40.723Z,990.2
2024-02-08T06:01:42.743Z,990.3
2024-02-08T06:02:44.705Z,990.3
2024-02-08T06:03:46.783Z,989.9
2024-02-08T06:04:48.737Z,990.2
2024-02-08T06:05:50.914Z,990.3
2024-02-08T06:06:52.720Z,990.3
2024-02-08T06:07:54.771Z,990.4
2024-02-08T06:08:56.733Z,989.1
2024-02-08T06:09:58.754Z,990.2
2024-02-08T06:11:00.724Z,990.2
2024-02-08T06:12:02.681Z,990.3
2024-02-08T06:13:04.714Z,990.3
2024-02-08T06:14:06.693Z,990.3
2024-02-08T06:15:08.682Z,990.3
2024-02-08T06:16:10.713Z,990.2
2024-02-08T06:17:12.719Z,990.2
2024-02-08T06:18:14.838Z,990.2
2024-02-08T06:19:17.028Z,990.2
2024-02-08T06:20:21.569Z,989.5
2024-02-08T06:21:30.810Z,990.2
2024-02-08T06:22:37.625Z,990.3
2024-02-08T06:23:41.856Z,990.3
2024-02-08T06:24:48.697Z,990.3
2024-02-08T06:25:48.710Z,990.3
2024-02-08T06:26:50.688Z,990.3
2024-02-08T06:27:54.699Z,990.3
2024-02-08T06:28:59.615Z,990.4
2024-02-08T06:30:02.089Z,990.4
2024-02-08T06:31:08.731Z,990.4
2024-02-08T06:32:10.775Z,990.4
2024-02-08T06:33:12.768Z,990.4
2024-02-08T06:34:15.769Z,990.4
2024-02-08T06:35:17.918Z,990.4
2024-02-08T06:36:20.715Z,990.3
2024-02-08T06:37:25.761Z,990.4
2024-02-08T06:38:28.731Z,990.4
2024-02-08T06:39:33.560Z,990.5
2024-02-08T06:40:34.747Z,990.4
2024-02-08T06:41:36.729Z,990.5
2024-02-08T06:42:38.696Z,990.4
2024-02-08T06:43:40.709Z,990.4
2024-02-08T06:44:42.702Z,990.4
2024-02-08T06:45:44.790Z,989.4
2024-02-08T06:46:46.748Z,990.3
2024-02-08T06:47:48.752Z,990.4
2024-02-08T06:48:50.972Z,990.4
2024-02-08T06:49:52.818Z,990.5
2024-02-08T06:50:54.698Z,990.4
2024-02-08T06:51:56.783Z,989.9
2024-02-08T06:52:58.707Z,990.3
2024-02-08T06:54:00.734Z,990.3
2024-02-08T06:55:02.736Z,990.3
2024-02-08T06:56:04.833Z,990.3
2024-02-08T06:57:06.735Z,989.1
2024-02-08T06:58:08.754Z,990.1
2024-02-08T06:59:10.755Z,990.2
2024-02-08T07:00:12.723Z,990.3
2024-02-08T07:01:14.796Z,990.3
2024-02-08T07:02:16.731Z,990.1
2024-02-08T07:03:18.725Z,990.2
2024-02-08T07:04:20.752Z,990.3
2024-02-08T07:05:22.718Z,990.3
2024-02-08T07:06:24.723Z,990.2
2024-02-08T07:07:27.015Z,990.2
2024-02-08T07:08:28.742Z,989.3
2024-02-08T07:09:31.107Z,990.1
2024-02-08T07:10:32.851Z,990.2
2024-02-08T07:11:34.816Z,990.2
2024-02-08T07:12:36.718Z,990.2
2024-02-08T07:13:38.795Z,990.2
2024-02-08T07:14:40.712Z,990.3
2024-02-08T07:15:42.783Z,990.3
2024-02-08T07:16:44.714Z,990.3
2024-02-08T07:17:46.747Z,990.3
2024-02-08T07:18:52.243Z,990.3
2024-02-08T07:19:50.791Z,990.3
2024-02-08T07:20:52.735Z,990.3
2024-02-08T07:21:55.252Z,990.3
2024-02-08T07:22:56.729Z,990.3
2024-02-08T07:23:58.718Z,990.3
2024-02-08T07:25:03.308Z,990.3
2024-02-08T07:26:02.731Z,990.3
2024-02-08T07:27:04.779Z,990.3
2024-02-08T07:28:07.765Z,990.3
2024-02-08T07:29:09.727Z,990.4
2024-02-08T07:30:11.719Z,990.2
2024-02-08T07:31:14.766Z,990.3
2024-02-08T07:32:16.775Z,990.3
2024-02-08T07:33:18.842Z,990.2
2024-02-08T07:34:20.825Z,990.3
2024-02-08T07:35:22.771Z,990.3
2024-02-08T07:36:25.336Z,990.3
2024-02-08T07:37:27.264Z,990.2
2024-02-08T07:38:28.752Z,990.2
2024-02-08T07:39:31.191Z,990.1
2024-02-08T07:40:32.794Z,990.1
2024-02-08T07:41:34.741Z,990.1
2024-02-08T07:42:36.890Z,990.1
2024-02-08T07:43:38.836Z,990.1
2024-02-08T07:44:40.752Z,990
2024-02-08T07:45:42.716Z,990
2024-02-08T07:46:44.751Z,989.9
2024-02-08T07:47:46.754Z,989.9
2024-02-08T07:48:48.761Z,990
2024-02-08T07:49:50.905Z,990
2024-02-08T07:50:54.739Z,989.9
2024-02-08T07:51:56.830Z,989.9
2024-02-08T07:52:58.743Z,989.9
2024-02-08T07:54:00.807Z,990
2024-02-08T07:55:02.780Z,989.8
2024-02-08T07:56:04.744Z,989.7
2024-02-08T07:57:06.743Z,989.7
2024-02-08T07:58:08.862Z,989.8
2024-02-08T07:59:10.743Z,989.7
2024-02-08T08:00:12.733Z,989.2
2024-02-08T08:01:14.872Z,989.6
2024-02-08T08:02:16.800Z,989.6
2024-02-08T08:03:18.729Z,989.7
2024-02-08T08:04:20.785Z,989.7
2024-02-08T08:05:22.869Z,988.8
2024-02-08T08:06:24.760Z,989.6
2024-02-08T08:07:26.822Z,989.6
2024-02-08T08:08:28.760Z,989.6
2024-02-08T08:09:31.143Z,989.6
2024-02-08T08:10:32.844Z,989.2
2024-02-08T08:11:34.762Z,989.3
2024-02-08T08:12:38.205Z,989.8
2024-02-08T08:13:39.832Z,989.6
2024-02-08T08:14:41.757Z,989.6
2024-02-08T08:15:43.765Z,989.5
2024-02-08T08:16:45.745Z,989.5
2024-02-08T08:17:47.775Z,989.5
2024-02-08T08:18:49.806Z,989.6
2024-02-08T08:19:51.797Z,989.5
2024-02-08T08:20:53.755Z,989.6
2024-02-08T08:21:55.800Z,989.6
2024-02-08T08:22:57.765Z,989.6
2024-02-08T08:23:59.783Z,989.7
2024-02-08T08:25:01.814Z,989.7
2024-02-08T08:26:03.748Z,989.6
2024-02-08T08:27:05.744Z,989.6
2024-02-08T08:28:07.803Z,989.6
2024-02-08T08:29:09.778Z,989.5
2024-02-08T08:30:11.756Z,989.6
2024-02-08T08:31:13.829Z,989.5
2024-02-08T08:32:15.756Z,989.5
2024-02-08T08:33:18.035Z,989.6
2024-02-08T08:34:20.025Z,989.6
2024-02-08T08:35:21.850Z,989.6
2024-02-08T08:36:23.745Z,989.6
2024-02-08T08:37:25.778Z,989.6
2024-02-08T08:38:28.772Z,989.6
2024-02-08T08:39:31.164Z,989.6
2024-02-08T08:40:32.889Z,989.8
2024-02-08T08:41:34.848Z,989.7
2024-02-08T08:42:36.779Z,989.3
2024-02-08T08:43:38.992Z,989.6
2024-02-08T08:44:40.810Z,989.7
2024-02-08T08:45:42.776Z,989.6
2024-02-08T08:46:44.795Z,989.6
2024-02-08T08:47:47.820Z,989.6
2024-02-08T08:48:49.900Z,989.5
2024-02-08T08:49:51.874Z,989.6
2024-02-08T08:50:53.793Z,989.5
2024-02-08T08:51:55.802Z,989.4
2024-02-08T08:52:57.778Z,989.6
2024-02-08T08:53:59.765Z,989.6
2024-02-08T08:55:01.787Z,989.6
2024-02-08T08:56:03.798Z,989.5
2024-02-08T08:57:05.775Z,989.5
2024-02-08T08:58:07.830Z,989.5
2024-02-08T08:59:09.817Z,989.5
2024-02-08T09:00:11.822Z,989.6
2024-02-08T09:01:13.887Z,989.5
2024-02-08T09:02:15.817Z,989.5
2024-02-08T09:03:17.809Z,989.5
2024-02-08T09:04:19.841Z,989.5
2024-02-08T09:05:21.815Z,989.5
2024-02-08T09:06:23.786Z,989.6
2024-02-08T09:07:28.041Z,989.4
2024-02-08T09:08:27.911Z,989.4
2024-02-08T09:09:29.982Z,989.4
2024-02-08T09:10:31.763Z,989.5
2024-02-08T09:11:33.776Z,989.5
2024-02-08T09:12:36.816Z,989.6
2024-02-08T09:13:39.188Z,989.6
2024-02-08T09:14:40.788Z,989.6
2024-02-08T09:15:42.805Z,989.7
2024-02-08T09:16:44.839Z,989.7
2024-02-08T09:17:46.799Z,989.7
2024-02-08T09:18:48.943Z,989.7
2024-02-08T09:19:50.860Z,989.7
2024-02-08T09:20:52.777Z,989.7
2024-02-08T09:21:54.787Z,989.8
2024-02-08T09:22:56.813Z,989.7
2024-02-08T09:23:58.778Z,989.8
2024-02-08T09:25:00.834Z,989.7
2024-02-08T09:26:02.897Z,989.7
2024-02-08T09:27:04.818Z,989.6
2024-02-08T09:28:06.891Z,989.6
2024-02-08T09:29:08.799Z,989.6
2024-02-08T09:30:10.819Z,989.6
2024-02-08T09:31:12.857Z,989.5
2024-02-08T09:32:14.788Z,989.6
2024-02-08T09:33:16.865Z,989.7
2024-02-08T09:34:18.840Z,989.7
2024-02-08T09:35:20.974Z,989.6
2024-02-08T09:36:22.796Z,989.6
2024-02-08T09:37:24.834Z,989.6
2024-02-08T09:38:27.918Z,989.6
2024-02-08T09:39:29.785Z,988.7
2024-02-08T09:40:31.917Z,989.5
2024-02-08T09:41:33.789Z,989.5
2024-02-08T09:42:35.789Z,989.6
2024-02-08T09:43:37.833Z,989.5
2024-02-08T09:44:39.787Z,989.5
2024-02-08T09:45:42.286Z,989.5
2024-02-08T09:46:43.925Z,989.5
2024-02-08T09:47:45.795Z,989.4
2024-02-08T09:48:47.800Z,989.4
2024-02-08T09:49:49.822Z,989.3
2024-02-08T09:50:51.848Z,989.2
2024-02-08T09:51:56.081Z,989.4
2024-02-08T09:52:59.656Z,989.4
2024-02-08T09:53:58.794Z,989.4
2024-02-08T09:55:00.894Z,989.4
2024-02-08T09:56:02.806Z,989.4
2024-02-08T09:57:05.035Z,989.5
2024-02-08T09:58:06.830Z,989.6
2024-02-08T09:59:10.177Z,989.5
2024-02-08T10:00:10.845Z,989.2
2024-02-08T10:01:12.820Z,989.4
2024-02-08T10:02:14.877Z,989.4
2024-02-08T10:03:16.839Z,989.4
2024-02-08T10:04:19.426Z,989.5
2024-02-08T10:05:21.275Z,989.4
2024-02-08T10:06:23.815Z,989.3
2024-02-08T10:07:25.850Z,989.3
2024-02-08T10:08:27.888Z,989.3
2024-02-08T10:09:29.861Z,989.3
2024-02-08T10:10:31.822Z,989.3
2024-02-08T10:11:33.872Z,989.4
2024-02-08T10:12:35.820Z,989.3
2024-02-08T10:13:37.868Z,989.3
2024-02-08T10:14:39.818Z,989.2
2024-02-08T10:15:42.005Z,989.2
2024-02-08T10:16:44.207Z,989.3
2024-02-08T10:17:45.901Z,989.2
2024-02-08T10:18:47.848Z,989.1
2024-02-08T10:19:49.947Z,989.1
2024-02-08T10:20:51.831Z,989.1
2024-02-08T10:21:53.846Z,989.1
2024-02-08T10:22:56.043Z,989.1
2024-02-08T10:23:57.847Z,989.1
2024-02-08T10:24:59.833Z,989.1
2024-02-08T10:26:01.818Z,989.1
2024-02-08T10:27:03.809Z,989.1
2024-02-08T10:28:05.887Z,989
2024-02-08T10:29:07.824Z,989
2024-02-08T10:30:09.820Z,988.9
2024-02-08T10:31:13.937Z,988.9
2024-02-08T10:32:15.865Z,988.9
2024-02-08T10:33:17.937Z,988.8
2024-02-08T10:34:19.880Z,988.8
2024-02-08T10:35:22.320Z,988.8
2024-02-08T10:36:26.093Z,988.8
2024-02-08T10:37:25.885Z,988.8
2024-02-08T10:38:27.888Z,989
2024-02-08T10:39:29.831Z,988.9
2024-02-08T10:40:32.042Z,988.8
2024-02-08T10:41:33.809Z,988.8
2024-02-08T10:42:35.818Z,988.9
2024-02-08T10:43:38.208Z,988.8
2024-02-08T10:44:39.813Z,988.8
2024-02-08T10:45:41.892Z,988.8
2024-02-08T10:46:43.911Z,988.7
2024-02-08T10:47:47.849Z,988.7
2024-02-08T10:48:47.981Z,988.7
2024-02-08T10:49:49.926Z,988.7
2024-02-08T10:50:51.836Z,988.6
2024-02-08T10:51:53.837Z,988.6
2024-02-08T10:52:55.826Z,988.6
2024-02-08T10:53:57.893Z,988.5
2024-02-08T10:54:59.864Z,988.4
2024-02-08T10:56:01.835Z,988.4
2024-02-08T10:57:03.823Z,988.4
2024-02-08T10:58:05.855Z,988.4
2024-02-08T10:59:07.840Z,988.1
2024-02-08T11:00:09.891Z,988.4
2024-02-08T11:01:11.914Z,988.5
2024-02-08T11:02:13.858Z,988.5
2024-02-08T11:03:16.302Z,988.4
2024-02-08T11:04:18.255Z,988.5
2024-02-08T11:05:20.353Z,988.4
2024-02-08T11:06:21.860Z,988.5
2024-02-08T11:07:23.856Z,988.6
2024-02-08T11:08:26.422Z,988.6
2024-02-08T11:09:27.873Z,988.6
2024-02-08T11:10:29.924Z,988.6
2024-02-08T11:11:31.937Z,988.5
2024-02-08T11:12:33.832Z,988.6
2024-02-08T11:13:35.889Z,988.6
2024-02-08T11:14:37.855Z,988.6
2024-02-08T11:15:40.066Z,988.5
2024-02-08T11:16:41.883Z,988.5
2024-02-08T11:17:43.863Z,988.5
2024-02-08T11:18:48.846Z,988.5
2024-02-08T11:19:51.975Z,988.5
2024-02-08T11:20:53.844Z,988.5
2024-02-08T11:21:55.840Z,988.5
2024-02-08T11:22:57.927Z,988.4
2024-02-08T11:23:59.852Z,988.4
2024-02-08T11:25:02.005Z,988.4
2024-02-08T11:26:03.841Z,988.4
2024-02-08T11:27:05.867Z,988.4
2024-02-08T11:28:14.277Z,988.5
2024-02-08T11:29:09.862Z,988.4
2024-02-08T11:30:11.849Z,988.4
2024-02-08T11:31:13.969Z,988.4
2024-02-08T11:32:15.880Z,988.4
2024-02-08T11:33:17.836Z,988.3
2024-02-08T11:34:21.217Z,988.3
2024-02-08T11:35:24.912Z,988.3
2024-02-08T11:36:26.850Z,988.4
2024-02-08T11:37:38.770Z,988.3
2024-02-08T11:38:40.840Z,988.3
2024-02-08T11:39:42.869Z,988.3
2024-02-08T11:40:44.864Z,988.2
2024-02-08T11:41:46.861Z,988.3
2024-02-08T11:42:48.909Z,988.2
2024-02-08T11:43:50.892Z,988.2
2024-02-08T11:44:52.853Z,988.2
2024-02-08T11:45:54.852Z,988.2
2024-02-08T11:46:56.891Z,988.3
2024-02-08T11:47:58.941Z,988.3
2024-02-08T11:49:00.940Z,988.3
2024-02-08T11:50:03.510Z,988.3
2024-02-08T11:51:04.869Z,988.3
2024-02-08T11:52:06.922Z,988.3
2024-02-08T11:53:08.874Z,988.4
2024-02-08T11:54:10.868Z,988.4
2024-02-08T11:55:12.922Z,988.3
2024-02-08T11:56:14.850Z,988.4
2024-02-08T11:57:18.722Z,988.4
2024-02-08T11:58:18.895Z,988.4
2024-02-08T11:59:20.859Z,988.4
2024-02-08T12:00:22.874Z,988.4
2024-02-08T12:01:24.977Z,988.4
2024-02-08T12:02:26.861Z,988.4
2024-02-08T12:03:28.890Z,988.4
2024-02-08T12:04:31.464Z,988.4
2024-02-08T12:05:33.031Z,987.3
2024-02-08T12:06:34.881Z,988.2
2024-02-08T12:07:37.014Z,988.4
2024-02-08T12:08:43.085Z,988.4
2024-02-08T12:09:40.862Z,988.4
2024-02-08T12:10:43.606Z,988.4
2024-02-08T12:11:44.865Z,988.3
2024-02-08T12:12:46.867Z,988.3
2024-02-08T12:13:48.877Z,988.4
2024-02-08T12:14:50.859Z,988.3
2024-02-08T12:15:52.902Z,988.3
2024-02-08T12:16:54.873Z,988.3
2024-02-08T12:17:56.957Z,988.3
2024-02-08T12:18:58.889Z,988.2
2024-02-08T12:20:01.273Z,988.2
2024-02-08T12:21:03.182Z,988.3
2024-02-08T12:22:05.194Z,988.2
2024-02-08T12:23:06.895Z,987.8
2024-02-08T12:24:08.855Z,988
2024-02-08T12:25:10.883Z,988.1
2024-02-08T12:26:12.873Z,988.1
2024-02-08T12:27:15.944Z,988.1
2024-02-08T12:28:17.029Z,988.1
2024-02-08T12:29:18.880Z,988
2024-02-08T12:30:20.891Z,988
2024-02-08T12:31:22.898Z,988
2024-02-08T12:32:25.893Z,988
2024-02-08T12:33:26.934Z,988
2024-02-08T12:34:29.070Z,988
2024-02-08T12:35:31.425Z,988
2024-02-08T12:36:32.909Z,987.9
2024-02-08T12:37:34.903Z,987.9
2024-02-08T12:38:38.875Z,987.9
2024-02-08T12:39:38.860Z,987.9
2024-02-08T12:40:41.224Z,987.9
2024-02-08T12:41:42.895Z,988
2024-02-08T12:42:44.866Z,987.9
2024-02-08T12:43:46.928Z,987.8
2024-02-08T12:44:48.884Z,987.9
2024-02-08T12:45:50.883Z,987.8
2024-02-08T12:46:52.879Z,987.8
2024-02-08T12:47:54.893Z,987.8
2024-02-08T12:48:57.198Z,987.7
2024-02-08T12:50:02.625Z,987.8
2024-02-08T12:51:05.923Z,987.7
2024-02-08T12:52:07.957Z,987.6
2024-02-08T12:53:09.877Z,987.2
2024-02-08T12:54:11.879Z,987.6
2024-02-08T12:55:13.908Z,987.5
2024-02-08T12:56:17.125Z,987.5
2024-02-08T12:57:17.891Z,987.5
2024-02-08T12:58:19.969Z,987.7
2024-02-08T12:59:21.895Z,987.5
2024-02-08T13:00:23.929Z,987.5
2024-02-08T13:01:25.982Z,987.5
2024-02-08T13:02:27.903Z,987.6
2024-02-08T13:03:29.892Z,987.4
2024-02-08T13:04:31.976Z,987.3
2024-02-08T13:05:33.971Z,987.5
2024-02-08T13:06:35.901Z,987.5
2024-02-08T13:07:38.846Z,987.5
2024-02-08T13:08:39.912Z,987.5
2024-02-08T13:09:41.897Z,986.8
2024-02-08T13:10:43.976Z,987.3
2024-02-08T13:11:45.893Z,987.4
2024-02-08T13:12:47.918Z,987.4
2024-02-08T13:13:50.028Z,987.4
2024-02-08T13:14:51.973Z,987.4
2024-02-08T13:15:53.932Z,987.3
2024-02-08T13:16:55.941Z,987.3
2024-02-08T13:17:58.019Z,987.3
2024-02-08T13:18:59.954Z,987.3
2024-02-08T13:20:02.019Z,987.3
2024-02-08T13:21:05.238Z,987.3
2024-02-08T13:22:06.908Z,987.3
2024-02-08T13:23:11.149Z,987.3
2024-02-08T13:24:13.913Z,987.3
2024-02-08T13:25:16.239Z,987.3
2024-02-08T13:26:25.528Z,987.2